Time;durP1;ratioP1;P1;durP2;ratioP2;P2;SDS_P1;SDS_P2;PMS_P1;PMS_P2;Temp;Humidity;BMP_temperature;BMP_pressure;BME280_temperature;BME280_humidity;BME280_pressure;Samples;Min_cycle;Max_cycle;Signal;HPM_P1;HPM_P2
2022/05/12 00:00:06;;;;;;;4.72;3.08;;;;;;;19.67;56.29;98131.53;5007368;28;20029;-85
2022/05/12 00:02:32;;;;;;;5.40;3.47;;;;;;;19.68;56.29;98125.78;5025564;28;20429;-85
2022/05/12 00:04:59;;;;;;;6.15;3.33;;;;;;;19.72;56.64;98131.38;4993122;28;20040;-85
2022/05/12 00:07:25;;;;;;;5.65;3.20;;;;;;;19.74;56.42;98142.66;4990252;28;20128;-85
2022/05/12 00:09:51;;;;;;;4.30;3.13;;;;;;;19.76;56.37;98178.34;4974606;28;20460;-85
2022/05/12 00:12:16;;;;;;;3.33;2.80;;;;;;;19.74;56.42;98202.25;4993928;28;20127;-85
2022/05/12 00:14:42;;;;;;;7.13;3.08;;;;;;;19.73;56.72;98206.06;4987847;28;20485;-84
2022/05/12 00:17:07;;;;;;;7.50;3.33;;;;;;;19.69;56.86;98210.53;4988133;28;20505;-85
2022/05/12 00:19:32;;;;;;;4.28;3.25;;;;;;;19.66;57.13;98217.38;4977253;28;20573;-82
2022/05/12 00:21:57;;;;;;;12.75;3.65;;;;;;;19.63;57.42;98228.06;4985365;28;20037;-81
2022/05/12 00:24:24;;;;;;;18.08;4.00;;;;;;;19.64;57.85;98232.34;4986158;28;20116;-82
2022/05/12 00:26:49;;;;;;;11.77;4.35;;;;;;;19.59;58.37;98235.25;4985501;28;21254;-82
2022/05/12 00:29:15;;;;;;;7.60;4.00;;;;;;;19.53;58.42;98244.66;5021156;28;20025;-82
2022/05/12 00:31:44;;;;;;;10.15;4.30;;;;;;;19.57;58.47;98261.84;4992585;28;20123;-82
2022/05/12 00:34:10;;;;;;;10.30;4.30;;;;;;;19.53;58.75;98264.38;5012803;28;20025;-81
2022/05/12 00:36:36;;;;;;;10.60;3.92;;;;;;;19.54;58.62;98273.31;4999292;28;20041;-82
2022/05/12 00:39:03;;;;;;;7.18;3.30;;;;;;;19.47;59.22;98287.34;5020105;28;20038;-82
2022/05/12 00:41:28;;;;;;;7.68;3.38;;;;;;;19.42;58.81;98282.88;4985697;28;20025;-81
2022/05/12 00:44:02;;;;;;;9.00;3.60;;;;;;;19.39;58.77;98283.53;4990589;28;20030;-81
2022/05/12 00:46:31;;;;;;;9.32;3.10;;;;;;;19.44;58.87;98296.09;5005736;28;20022;-82
2022/05/12 00:49:01;;;;;;;6.47;3.05;;;;;;;19.34;58.75;98286.38;4988376;28;20030;-81
2022/05/12 00:51:31;;;;;;;5.13;2.83;;;;;;;19.37;58.10;98279.56;5023139;28;20086;-81
2022/05/12 00:54:01;;;;;;;4.32;3.20;;;;;;;19.28;58.59;98282.22;5026659;28;20496;-82
2022/05/12 00:56:26;;;;;;;6.10;2.70;;;;;;;19.27;58.46;98279.81;5030396;28;20068;-82
2022/05/12 00:58:57;;;;;;;8.77;2.85;;;;;;;19.22;58.35;98288.88;5004877;28;20120;-81
2022/05/12 01:01:22;;;;;;;8.13;3.33;;;;;;;19.17;58.11;98305.31;5031731;28;20455;-82
2022/05/12 01:03:48;;;;;;;10.90;3.38;;;;;;;19.10;58.00;98307.69;4993706;28;20120;-82
2022/05/12 01:06:14;;;;;;;6.20;2.97;;;;;;;19.05;58.25;98304.31;4993315;28;20040;-82
2022/05/12 01:08:41;;;;;;;10.75;3.03;;;;;;;19.04;58.09;98319.78;5027087;28;20084;-81
2022/05/12 01:11:12;;;;;;;7.50;3.00;;;;;;;19.04;58.17;98367.66;4988844;28;20115;-81
2022/05/12 01:13:38;;;;;;;7.25;2.95;;;;;;;19.01;58.40;98333.09;5014257;28;20370;-81
2022/05/12 01:16:05;;;;;;;9.68;2.50;;;;;;;18.93;58.61;98334.69;4981192;28;20041;-81
2022/05/12 01:18:35;;;;;;;7.47;3.20;;;;;;;18.97;58.49;98345.69;5011558;28;20026;-81
2022/05/12 01:21:01;;;;;;;4.97;2.83;;;;;;;18.95;58.59;98348.72;5009701;28;20037;-81
2022/05/12 01:23:38;;;;;;;9.63;2.78;;;;;;;18.96;58.85;98355.69;5030486;28;20027;-82
2022/05/12 01:26:09;;;;;;;6.60;3.10;;;;;;;18.93;58.47;98377.97;5024952;28;20052;-82
2022/05/12 01:28:36;;;;;;;6.68;3.00;;;;;;;18.92;58.93;98362.03;4978892;28;20029;-82
2022/05/12 01:31:02;;;;;;;7.75;2.78;;;;;;;18.89;58.44;98357.28;4996344;28;20033;-81
2022/05/12 01:33:28;;;;;;;9.57;3.13;;;;;;;18.91;58.81;98365.88;4991361;28;20056;-82
2022/05/12 01:35:54;;;;;;;9.05;3.20;;;;;;;18.91;59.06;98361.28;4987909;28;20125;-82
2022/05/12 01:38:20;;;;;;;10.32;3.15;;;;;;;18.95;58.77;98373.06;4989494;28;20128;-82
2022/05/12 01:40:45;;;;;;;7.43;3.15;;;;;;;18.91;58.55;98379.41;4995690;28;20116;-82
2022/05/12 01:43:14;;;;;;;11.23;3.20;;;;;;;18.89;59.01;98378.91;5015501;28;20079;-82
2022/05/12 01:45:40;;;;;;;6.40;3.33;;;;;;;18.89;58.83;98381.63;5007410;28;20390;-81
2022/05/12 01:48:09;;;;;;;7.95;4.03;;;;;;;18.86;59.59;98387.66;5021018;28;20041;-82
2022/05/12 01:50:36;;;;;;;7.80;2.83;;;;;;;18.78;58.97;98397.34;4991234;28;20025;-81
2022/05/12 01:53:03;;;;;;;10.57;3.20;;;;;;;18.76;59.72;98409.56;5005389;28;20052;-81
2022/05/12 01:55:28;;;;;;;5.78;3.35;;;;;;;18.73;59.81;98416.41;5008286;28;20496;-82
2022/05/12 01:57:55;;;;;;;11.20;3.63;;;;;;;18.67;60.25;98418.41;5025693;28;20029;-81
2022/05/12 02:00:23;;;;;;;6.78;2.97;;;;;;;18.55;60.54;98412.81;4979290;28;20037;-82
2022/05/12 02:02:49;;;;;;;5.85;3.00;;;;;;;18.53;60.57;98425.84;4992726;28;20076;-82
2022/05/12 02:05:15;;;;;;;6.28;2.78;;;;;;;18.49;61.38;98427.56;5009423;28;20057;-82
2022/05/12 02:07:43;;;;;;;6.30;2.70;;;;;;;18.48;61.38;98427.88;4993347;28;20045;-82
2022/05/12 02:10:11;;;;;;;3.53;2.70;;;;;;;18.47;61.47;98439.78;4976619;28;20061;-82
2022/05/12 02:12:37;;;;;;;5.45;2.47;;;;;;;18.40;61.49;98439.41;5007799;28;20029;-82
2022/05/12 02:15:04;;;;;;;5.45;2.50;;;;;;;18.38;61.58;98450.53;5028572;28;20059;-81
2022/05/12 02:17:29;;;;;;;4.20;2.28;;;;;;;18.36;61.99;98439.22;5011713;28;20467;-81
2022/05/12 02:19:55;;;;;;;3.53;2.83;;;;;;;18.29;61.88;98417.25;4989551;28;20039;-82
2022/05/12 02:22:20;;;;;;;6.63;2.92;;;;;;;18.31;61.88;98419.63;4997488;28;20030;-82
2022/05/12 02:24:46;;;;;;;6.07;3.08;;;;;;;18.30;61.72;98413.44;4978872;28;20033;-81
2022/05/12 02:27:12;;;;;;;6.70;3.30;;;;;;;18.30;61.64;98416.16;5007843;28;20470;-82
2022/05/12 02:29:37;;;;;;;3.65;2.80;;;;;;;18.24;61.97;98413.88;5008810;28;20029;-82
2022/05/12 02:32:03;;;;;;;4.40;3.22;;;;;;;18.20;62.07;98412.88;5008848;28;20135;-82
2022/05/12 02:34:28;;;;;;;4.22;2.70;;;;;;;18.23;61.72;98440.09;5025068;28;20033;-82
2022/05/12 02:37:03;;;;;;;17.95;3.95;;;;;;;18.13;61.54;98451.13;4994479;28;20580;-82
2022/05/12 02:39:31;;;;;;;8.02;3.13;;;;;;;18.10;61.99;98440.16;4994110;28;20575;-81
2022/05/12 02:41:57;;;;;;;14.23;3.75;;;;;;;18.05;61.84;98445.66;4989539;28;20033;-82
2022/05/12 02:44:23;;;;;;;6.63;3.50;;;;;;;18.03;61.65;98439.78;4993140;28;20112;-81
2022/05/12 02:46:48;;;;;;;6.35;2.85;;;;;;;17.99;61.76;98455.81;4978096;28;20413;-81
2022/05/12 02:49:14;;;;;;;5.25;3.30;;;;;;;17.95;61.99;98457.53;5007271;28;20041;-81
2022/05/12 02:51:39;;;;;;;6.55;2.35;;;;;;;17.94;61.61;98466.72;5025036;28;20061;-82
2022/05/12 02:54:04;;;;;;;5.50;3.25;;;;;;;17.89;62.05;98472.22;4992481;28;20501;-82
2022/05/12 02:56:30;;;;;;;8.57;3.20;;;;;;;17.87;61.73;98493.34;4973973;28;20048;-81
2022/05/12 02:58:55;;;;;;;3.90;2.65;;;;;;;17.88;61.34;98481.44;5007159;28;20091;-82
2022/05/12 03:01:21;;;;;;;4.28;2.55;;;;;;;17.78;61.70;98498.66;5023722;28;20152;-82
2022/05/12 03:03:46;;;;;;;9.40;2.95;;;;;;;17.77;61.75;98507.06;5009664;28;20025;-81
2022/05/12 03:06:12;;;;;;;3.45;2.80;;;;;;;17.79;61.56;98521.06;5002452;28;20041;-82
2022/05/12 03:08:42;;;;;;;6.65;2.88;;;;;;;17.73;61.38;98517.69;4994782;28;20045;-82
2022/05/12 03:11:08;;;;;;;5.43;2.90;;;;;;;17.71;61.91;98530.66;5010127;28;20025;-81
2022/05/12 03:13:33;;;;;;;3.50;2.63;;;;;;;17.69;61.66;98526.69;4978610;28;20041;-82
2022/05/12 03:15:59;;;;;;;4.70;2.60;;;;;;;17.63;61.42;98538.66;4991011;28;20407;-82
2022/05/12 03:18:25;;;;;;;4.40;2.58;;;;;;;17.66;61.32;98560.47;5025566;28;20022;-81
2022/05/12 03:20:50;;;;;;;2.63;2.35;;;;;;;17.63;61.52;98549.47;4996822;28;20079;-81
2022/05/12 03:23:17;;;;;;;5.43;2.53;;;;;;;17.60;60.99;98563.59;5011118;28;20093;-81
2022/05/12 03:25:45;;;;;;;2.97;2.15;;;;;;;17.56;60.91;98574.16;5005283;28;20041;-82
2022/05/12 03:28:11;;;;;;;10.63;3.40;;;;;;;17.58;60.74;98580.06;5023440;28;20096;-82
2022/05/12 03:30:36;;;;;;;3.75;2.30;;;;;;;17.53;60.89;98582.06;5001503;28;20042;-81
2022/05/12 03:33:02;;;;;;;8.52;3.42;;;;;;;17.44;60.74;98592.72;5005462;28;20041;-82
2022/05/12 03:35:28;;;;;;;3.78;2.53;;;;;;;17.43;60.61;98590.34;5010120;28;20033;-81
2022/05/12 03:37:53;;;;;;;4.10;2.10;;;;;;;17.53;60.36;98603.66;5005282;28;20029;-81
2022/05/12 03:40:19;;;;;;;4.22;2.58;;;;;;;17.41;60.47;98609.50;4991466;28;20056;-85
2022/05/12 03:42:46;;;;;;;5.57;2.22;;;;;;;17.34;60.86;98621.81;5016468;28;20639;-85
2022/05/12 03:45:12;;;;;;;3.03;2.80;;;;;;;17.44;60.35;98629.69;5001658;28;20362;-85
2022/05/12 03:47:39;;;;;;;6.43;2.42;;;;;;;17.28;60.60;98629.16;5003470;28;20036;-85
2022/05/12 03:50:08;;;;;;;3.72;2.00;;;;;;;17.30;60.05;98642.38;5027005;28;20068;-85
2022/05/12 03:52:34;;;;;;;6.35;2.13;;;;;;;17.30;60.31;98653.19;5005857;28;20034;-85
2022/05/12 03:54:59;;;;;;;9.00;3.05;;;;;;;17.37;59.69;98648.16;4995291;28;20033;-85
2022/05/12 03:57:27;;;;;;;5.07;2.78;;;;;;;17.44;59.15;98648.59;4989060;28;20060;-85
2022/05/12 03:59:53;;;;;;;5.93;2.35;;;;;;;17.22;59.70;98651.94;5024332;28;20066;-85
2022/05/12 04:02:19;;;;;;;2.83;1.98;;;;;;;17.34;59.75;98663.09;5025198;28;20044;-86
2022/05/12 04:04:46;;;;;;;4.85;1.95;;;;;;;17.17;59.99;98650.13;5005712;28;20040;-85
2022/05/12 04:07:13;;;;;;;5.28;2.10;;;;;;;17.33;59.85;98672.25;5019872;28;20431;-86
2022/05/12 04:09:39;;;;;;;2.00;1.80;;;;;;;17.17;59.80;98662.81;4987605;28;20034;-85
2022/05/12 04:12:06;;;;;;;4.95;2.33;;;;;;;17.20;59.71;98684.63;5001478;28;20436;-85
2022/05/12 04:14:31;;;;;;;4.88;2.42;;;;;;;17.30;59.69;98690.94;5024346;28;20386;-85
2022/05/12 04:16:59;;;;;;;1.90;1.58;;;;;;;17.20;59.83;98697.28;5007816;28;20036;-85
2022/05/12 04:19:25;;;;;;;3.28;2.92;;;;;;;17.35;59.19;98710.53;5020914;28;20091;-85
2022/05/12 04:21:52;;;;;;;5.05;2.13;;;;;;;17.14;59.17;98699.28;5009169;28;20034;-85
2022/05/12 04:24:18;;;;;;;2.15;1.90;;;;;;;17.20;59.72;98708.09;4994294;28;20025;-85
2022/05/12 04:26:43;;;;;;;4.88;2.22;;;;;;;17.38;58.81;98726.13;4988235;28;20552;-85
2022/05/12 04:29:09;;;;;;;2.17;1.83;;;;;;;17.48;58.59;98727.84;4965938;28;21815;-85
2022/05/12 04:31:34;;;;;;;2.05;1.90;;;;;;;17.29;59.46;98732.50;5003881;28;20177;-85
2022/05/12 04:36:43;;;;;;;4.13;2.13;;;;;;;17.09;59.35;98739.81;5007142;28;20043;-84
2022/05/12 04:39:09;;;;;;;2.95;1.77;;;;;;;17.34;59.02;98743.22;5011947;28;20489;-84
2022/05/12 04:41:35;;;;;;;8.05;1.90;;;;;;;17.38;59.40;98749.63;4971961;28;20033;-84
2022/05/12 04:44:01;;;;;;;2.70;1.73;;;;;;;17.39;59.05;98760.09;4980963;28;20036;-84
2022/05/12 04:46:28;;;;;;;3.58;2.25;;;;;;;17.65;58.34;98774.00;5003228;28;20436;-84
2022/05/12 04:48:53;;;;;;;4.45;1.77;;;;;;;17.73;58.35;98771.44;5002148;28;20037;-84
2022/05/12 04:51:19;;;;;;;4.65;2.05;;;;;;;17.78;57.52;98771.34;4997005;28;20029;-84
2022/05/12 04:53:45;;;;;;;6.95;1.80;;;;;;;17.86;57.49;98765.28;4985257;28;20045;-84
2022/05/12 04:56:11;;;;;;;3.20;1.80;;;;;;;17.88;57.82;98783.88;5014059;28;20045;-81
2022/05/12 04:58:36;;;;;;;2.55;1.90;;;;;;;17.86;57.71;98776.09;5002666;28;20033;-83
2022/05/12 05:01:01;;;;;;;3.75;1.90;;;;;;;17.84;57.51;98786.34;4971379;28;20329;-82
2022/05/12 05:03:27;;;;;;;7.65;2.30;;;;;;;17.22;59.17;98798.41;5004143;28;20022;-81
2022/05/12 05:05:52;;;;;;;4.53;2.50;;;;;;;17.07;59.54;98778.94;5022424;28;20505;-81
2022/05/12 05:08:21;;;;;;;3.42;2.15;;;;;;;17.25;59.56;98792.41;5025255;28;20765;-82
2022/05/12 05:10:48;;;;;;;3.50;2.08;;;;;;;17.30;59.33;98790.75;5013980;28;20056;-82
2022/05/12 05:13:13;;;;;;;7.47;2.58;;;;;;;17.49;58.92;98799.63;5004736;28;20481;-81
2022/05/12 05:15:38;;;;;;;4.65;2.10;;;;;;;17.43;58.92;98790.78;5002066;28;20088;-81
2022/05/12 05:18:04;;;;;;;10.15;2.58;;;;;;;17.60;58.87;98796.50;5018435;28;20087;-82
2022/05/12 05:20:30;;;;;;;4.15;2.08;;;;;;;17.56;58.37;98802.78;5008515;28;20021;-81
2022/05/12 05:22:55;;;;;;;5.85;2.38;;;;;;;17.62;58.41;98802.41;5026050;28;20025;-82
2022/05/12 05:25:21;;;;;;;5.55;1.98;;;;;;;17.65;58.04;98804.50;4993977;28;20033;-82
2022/05/12 05:27:47;;;;;;;5.68;2.22;;;;;;;17.82;57.54;98818.25;4989368;28;20301;-81
2022/05/12 05:30:17;;;;;;;4.28;2.03;;;;;;;17.94;57.16;98812.38;5007201;28;20218;-82
2022/05/12 05:32:42;;;;;;;4.20;2.67;;;;;;;18.08;56.99;98823.22;5027248;28;20040;-81
2022/05/12 05:35:08;;;;;;;4.90;1.98;;;;;;;18.11;57.20;98836.16;4985064;28;20033;-81
2022/05/12 05:37:34;;;;;;;6.82;2.67;;;;;;;18.12;57.27;98829.63;5006038;28;20033;-81
2022/05/12 05:39:59;;;;;;;7.35;3.00;;;;;;;18.18;56.89;98836.53;4995801;28;20500;-81
2022/05/12 05:42:24;;;;;;;11.10;3.17;;;;;;;18.13;56.99;98845.53;5010820;28;20517;-81
2022/05/12 05:44:50;;;;;;;7.50;3.15;;;;;;;18.12;56.58;98849.34;5027195;28;20045;-81
2022/05/12 05:47:16;;;;;;;9.85;2.55;;;;;;;18.08;56.81;98852.94;5013764;28;20402;-81
2022/05/12 05:49:41;;;;;;;4.40;1.83;;;;;;;18.07;56.16;98856.72;5029419;28;20029;-81
2022/05/12 05:54:52;;;;;;;5.85;2.17;;;;;;;18.04;56.19;98862.75;5028030;28;20058;-81
2022/05/12 05:57:26;;;;;;;4.38;2.10;;;;;;;17.93;56.20;98862.91;5029231;28;20029;-81
2022/05/12 05:59:55;;;;;;;4.30;2.03;;;;;;;17.92;56.11;98858.59;5032559;28;20044;-81
2022/05/12 06:02:20;;;;;;;6.30;2.40;;;;;;;17.86;55.80;98875.19;5031705;28;20405;-81
2022/05/12 06:04:45;;;;;;;4.97;1.85;;;;;;;17.81;55.58;98876.06;5013250;28;20030;-81
2022/05/12 06:07:11;;;;;;;3.65;1.50;;;;;;;17.75;56.01;98887.25;5013057;28;20488;-81
2022/05/12 06:09:36;;;;;;;6.70;2.08;;;;;;;17.71;56.25;98897.03;5012202;28;20040;-81
2022/05/12 06:12:02;;;;;;;4.28;2.05;;;;;;;17.72;56.18;98899.44;4977422;28;20040;-81
2022/05/12 06:14:30;;;;;;;6.22;2.35;;;;;;;17.69;56.21;98905.41;5013124;28;20025;-82
2022/05/12 06:16:55;;;;;;;6.47;2.30;;;;;;;17.69;55.86;98910.81;4983059;28;20034;-81
2022/05/12 06:19:20;;;;;;;4.20;1.83;;;;;;;17.67;55.43;98914.91;5012083;28;20039;-81
2022/05/12 06:21:46;;;;;;;5.90;2.50;;;;;;;17.68;55.43;98916.50;4994686;28;20112;-81
2022/05/12 06:24:11;;;;;;;5.35;2.00;;;;;;;17.62;55.59;98917.69;4992805;28;20117;-81
2022/05/12 06:26:36;;;;;;;4.85;1.85;;;;;;;17.66;55.35;98921.41;4991682;28;20501;-81
2022/05/12 06:29:02;;;;;;;6.20;1.92;;;;;;;17.65;55.47;98919.78;4978773;28;20041;-81
2022/05/12 06:31:32;;;;;;;5.55;1.98;;;;;;;17.63;55.93;98925.47;4993876;28;20061;-81
2022/05/12 06:33:59;;;;;;;2.97;1.98;;;;;;;17.63;55.63;98927.38;4993408;28;20036;-81
2022/05/12 06:36:24;;;;;;;2.55;1.73;;;;;;;17.65;55.07;98931.38;5012993;28;20520;-81
2022/05/12 06:38:50;;;;;;;6.18;1.90;;;;;;;17.64;54.88;98945.19;5009055;28;20033;-82
2022/05/12 06:41:16;;;;;;;5.95;1.77;;;;;;;17.62;54.89;98942.78;5003194;28;20029;-81
2022/05/12 06:43:48;;;;;;;6.38;2.03;;;;;;;17.57;54.79;98953.63;5012234;28;20030;-81
2022/05/12 06:46:17;;;;;;;4.97;1.70;;;;;;;17.59;54.74;98951.44;5011579;28;20018;-81
2022/05/12 06:48:44;;;;;;;6.43;1.60;;;;;;;17.58;54.47;98949.06;5009907;28;20499;-81
2022/05/12 06:51:11;;;;;;;6.65;2.58;;;;;;;17.54;54.79;98943.41;5011799;28;20021;-81
2022/05/12 06:53:37;;;;;;;6.03;1.80;;;;;;;17.51;54.42;98949.41;5007596;28;20100;-82
2022/05/12 06:56:02;;;;;;;5.68;2.10;;;;;;;17.58;54.25;98960.63;5026254;28;20037;-81
2022/05/12 06:58:28;;;;;;;4.40;1.90;;;;;;;17.52;55.19;98959.09;5011683;28;20171;-81
2022/05/12 07:00:53;;;;;;;1.70;1.60;;;;;;;17.56;55.16;98967.44;5009712;28;20112;-81
2022/05/12 07:03:19;;;;;;;3.90;1.85;;;;;;;17.56;55.51;98970.13;5010463;28;20025;-81
2022/05/12 07:05:45;;;;;;;6.07;1.92;;;;;;;17.51;55.14;98962.91;5028423;28;20029;-81
2022/05/12 07:08:11;;;;;;;6.95;2.33;;;;;;;17.59;55.28;98978.44;5006188;28;21042;-82
2022/05/12 07:10:37;;;;;;;4.72;1.70;;;;;;;17.67;54.98;98977.78;5025300;28;20036;-81
2022/05/12 07:13:04;;;;;;;3.70;1.73;;;;;;;17.76;54.54;98972.53;5009976;28;20482;-81
2022/05/12 07:15:29;;;;;;;5.10;1.92;;;;;;;17.80;54.44;98993.25;5012009;28;20029;-81
2022/05/12 07:17:56;;;;;;;5.85;2.38;;;;;;;17.78;54.29;98981.94;5026297;28;20300;-82
2022/05/12 07:28:38;;;;;;;3.63;1.85;;;;;;;17.94;53.76;98987.94;5024881;28;20044;-81
2022/05/12 07:31:05;;;;;;;4.00;1.77;;;;;;;17.97;53.92;98998.16;5010155;28;20033;-81
2022/05/12 07:33:46;;;;;;;5.72;2.25;;;;;;;17.96;53.99;99000.06;5006850;28;20033;-81
2022/05/12 07:36:34;;;;;;;6.40;2.53;;;;;;;17.98;54.22;99019.47;5008535;28;20116;-81
2022/05/12 07:39:00;;;;;;;5.07;2.22;;;;;;;17.99;53.65;99014.88;5005912;28;20049;-81
2022/05/12 07:41:26;;;;;;;3.38;1.92;;;;;;;17.97;53.30;99017.84;5025082;28;20032;-81
2022/05/12 07:43:52;;;;;;;5.68;1.60;;;;;;;17.98;54.21;99014.06;4987184;28;20041;-81
2022/05/12 07:46:21;;;;;;;3.55;1.70;;;;;;;18.04;53.36;99031.03;5003229;28;20032;-81
2022/05/12 07:48:47;;;;;;;6.53;1.80;;;;;;;18.10;53.08;99031.75;5002498;28;20061;-82
2022/05/12 07:51:12;;;;;;;6.05;1.95;;;;;;;18.09;52.85;99039.03;5007340;28;20477;-81
2022/05/12 07:53:37;;;;;;;3.13;1.50;;;;;;;18.17;52.53;99043.00;5007501;28;20120;-81
2022/05/12 07:56:04;;;;;;;2.80;1.85;;;;;;;18.21;52.26;99039.41;4994749;28;20043;-81
2022/05/12 07:58:30;;;;;;;4.28;2.28;;;;;;;18.21;52.26;99041.31;4987950;28;20432;-82
2022/05/12 08:00:56;;;;;;;4.05;1.70;;;;;;;18.20;52.23;99045.09;5004526;28;20477;-81
2022/05/12 08:03:22;;;;;;;6.32;1.73;;;;;;;18.20;52.43;99045.91;5010354;28;20028;-81
2022/05/12 08:05:48;;;;;;;3.10;1.55;;;;;;;18.23;52.49;99060.72;5028292;28;20037;-82
2022/05/12 08:08:13;;;;;;;8.15;2.20;;;;;;;18.25;51.99;99051.22;5005843;28;20029;-81
2022/05/12 08:10:39;;;;;;;5.72;1.95;;;;;;;18.35;52.13;99053.78;5024089;28;20121;-81
2022/05/12 08:13:04;;;;;;;2.85;1.67;;;;;;;18.47;51.72;99070.38;5009448;28;20049;-81
2022/05/12 08:15:30;;;;;;;5.97;2.22;;;;;;;18.49;51.71;99059.28;5010410;28;20067;-81
2022/05/12 08:17:56;;;;;;;6.00;1.88;;;;;;;18.55;51.44;99055.38;5009283;28;20095;-81
2022/05/12 08:20:23;;;;;;;5.68;1.83;;;;;;;18.62;51.42;99058.53;5022168;28;20029;-81
2022/05/12 08:22:48;;;;;;;3.90;1.73;;;;;;;18.64;51.50;99062.53;5009921;28;20068;-82
2022/05/12 08:25:14;;;;;;;4.80;2.40;;;;;;;18.63;51.20;99060.13;4999239;28;20061;-81
2022/05/12 08:27:39;;;;;;;3.85;1.85;;;;;;;18.67;51.18;99071.97;5026587;28;20171;-81
2022/05/12 08:30:08;;;;;;;4.15;2.15;;;;;;;18.72;50.74;99073.78;4980583;28;20112;-81
2022/05/12 08:32:34;;;;;;;2.88;1.75;;;;;;;18.79;51.18;99069.59;5024561;28;20490;-82
2022/05/12 08:34:59;;;;;;;4.43;1.88;;;;;;;18.90;50.58;99072.91;5010629;28;20037;-81
2022/05/12 08:37:25;;;;;;;3.70;2.53;;;;;;;18.87;51.09;99068.13;5008738;28;20504;-81
2022/05/12 08:39:50;;;;;;;7.10;2.53;;;;;;;18.91;51.17;99069.13;5019332;28;20449;-82
2022/05/12 08:42:26;;;;;;;4.43;1.80;;;;;;;19.00;50.43;99068.13;5024901;28;20047;-81
2022/05/12 08:44:53;;;;;;;4.72;2.58;;;;;;;19.01;50.96;99067.03;5007519;28;20141;-82
2022/05/12 08:47:27;;;;;;;4.30;1.83;;;;;;;19.02;51.10;99063.25;4991053;28;20040;-81
2022/05/12 08:49:53;;;;;;;3.60;2.05;;;;;;;19.07;51.08;99075.84;4993699;28;20401;-81
2022/05/12 08:52:42;;;;;;;2.67;1.77;;;;;;;19.07;50.57;99078.56;4987452;28;20504;-81
2022/05/12 08:55:19;;;;;;;4.72;2.15;;;;;;;19.10;50.70;99077.97;5006791;28;20497;-81
2022/05/12 08:58:03;;;;;;;2.83;1.70;;;;;;;19.11;50.11;99072.25;5023341;28;20025;-81
2022/05/12 09:00:37;;;;;;;4.18;1.50;;;;;;;19.15;50.51;99076.00;5018064;28;20026;-82
2022/05/12 09:03:28;;;;;;;2.97;1.80;;;;;;;19.17;50.50;99078.41;5006737;28;20034;-81
2022/05/12 09:06:06;;;;;;;2.90;1.60;;;;;;;19.17;50.33;99076.50;5006267;28;20025;-81
2022/05/12 09:08:37;;;;;;;3.83;1.67;;;;;;;19.21;49.79;99077.50;5023848;28;20528;-81
2022/05/12 09:11:17;;;;;;;5.95;1.63;;;;;;;19.26;50.52;99080.09;5024528;28;20030;-81
2022/05/12 09:13:52;;;;;;;3.92;2.13;;;;;;;19.31;49.61;99090.84;5027250;28;20029;-81
2022/05/12 09:16:30;;;;;;;4.10;1.73;;;;;;;19.31;50.35;99081.91;5029916;28;20025;-81
2022/05/12 09:18:55;;;;;;;3.88;1.92;;;;;;;19.37;49.73;99080.75;5011434;28;20043;-82
2022/05/12 09:21:30;;;;;;;4.25;1.92;;;;;;;19.40;49.40;99094.50;5031880;28;20556;-81
2022/05/12 09:23:57;;;;;;;3.95;2.05;;;;;;;19.42;50.52;99088.75;5029888;28;20029;-81
2022/05/12 09:26:44;;;;;;;4.97;1.88;;;;;;;19.51;49.72;99089.69;5028699;28;20025;-81
2022/05/12 09:29:28;;;;;;;3.67;1.70;;;;;;;19.56;49.92;99092.28;5021778;28;20476;-81
2022/05/12 09:32:03;;;;;;;4.57;2.20;;;;;;;19.64;50.18;99093.47;5006486;28;20036;-81
2022/05/12 09:34:37;;;;;;;2.97;1.55;;;;;;;19.64;50.11;99097.00;5030894;28;20025;-81
2022/05/12 09:37:20;;;;;;;8.77;1.92;;;;;;;19.70;49.20;99097.72;4996318;28;20489;-81
2022/05/12 09:39:49;;;;;;;6.32;2.25;;;;;;;19.67;49.65;99087.47;5013896;28;20048;-81
2022/05/12 09:42:27;;;;;;;4.38;1.75;;;;;;;19.69;49.68;99091.50;5030690;28;20090;-81
2022/05/12 09:45:02;;;;;;;3.70;1.80;;;;;;;19.74;49.35;99087.88;5029646;28;20091;-81
2022/05/12 09:47:29;;;;;;;9.80;1.88;;;;;;;19.82;48.64;99081.75;5028465;28;20033;-81
2022/05/12 09:50:16;;;;;;;3.33;1.70;;;;;;;19.89;49.29;99085.66;5012379;28;20060;-81
2022/05/12 09:52:57;;;;;;;10.57;1.73;;;;;;;19.94;48.53;99082.03;5012382;28;20497;-81
2022/05/12 09:55:24;;;;;;;3.42;1.70;;;;;;;20.04;48.63;99073.69;5012693;28;20026;-81
2022/05/12 09:57:54;;;;;;;2.83;2.00;;;;;;;20.12;48.01;99086.50;5029052;28;20112;-81
2022/05/12 10:00:35;;;;;;;6.65;1.75;;;;;;;20.19;48.16;99078.75;5011968;28;20029;-81
2022/05/12 10:09:07;;;;;;;3.15;1.20;;;;;;;20.38;47.08;99084.06;5029151;28;20043;-81
2022/05/12 10:11:45;;;;;;;3.55;1.70;;;;;;;20.46;47.41;99078.72;4994017;28;20099;-81
2022/05/12 10:14:42;;;;;;;3.40;1.40;;;;;;;20.56;47.03;99083.91;5014956;28;20084;-81
2022/05/12 10:17:13;;;;;;;;;;;;;;;20.66;46.41;99083.63;4987495;28;20037;-81
2022/05/12 10:19:40;;;;;;;2.63;1.48;;;;;;;20.70;46.66;99086.56;5027790;28;20462;-81
2022/05/12 10:22:18;;;;;;;1.35;1.17;;;;;;;20.73;46.75;99089.44;5028617;28;20029;-81
2022/05/12 10:25:13;;;;;;;3.92;1.98;;;;;;;20.76;46.58;99088.03;5002255;28;20045;-81
2022/05/12 10:27:50;;;;;;;2.30;1.20;;;;;;;20.89;45.93;99084.44;5007251;28;20041;-81
2022/05/12 10:30:37;;;;;;;2.83;1.08;;;;;;;20.97;45.53;99085.63;5014214;28;20593;-81
2022/05/12 10:33:06;;;;;;;1.63;1.40;;;;;;;20.99;46.27;99096.97;5008920;28;20580;-81
2022/05/12 10:35:47;;;;;;;2.70;1.45;;;;;;;20.97;45.77;99097.25;5011893;28;20051;-81
2022/05/12 10:38:34;;;;;;;3.05;1.40;;;;;;;20.95;45.56;99093.28;5030340;28;20095;-81
2022/05/12 10:41:22;;;;;;;3.22;2.03;;;;;;;20.88;45.59;99099.13;5011435;28;20025;-81
2022/05/12 10:44:17;;;;;;;1.33;1.10;;;;;;;20.88;44.75;99099.91;5024976;28;20025;-81
2022/05/12 10:46:55;;;;;;;2.75;1.25;;;;;;;20.86;44.98;99095.91;5025893;28;20764;-81
2022/05/12 10:50:02;;;;;;;1.98;1.05;;;;;;;20.86;44.48;99088.56;5013353;28;20104;-81
2022/05/12 10:52:55;;;;;;;4.30;1.30;;;;;;;20.83;45.09;99089.22;5008316;28;20454;-81
2022/05/12 10:55:37;;;;;;;1.38;1.00;;;;;;;20.90;44.66;99091.50;5006242;28;20029;-81
2022/05/12 10:58:19;;;;;;;7.55;1.75;;;;;;;20.97;44.53;99091.06;5001366;28;20442;-81
2022/05/12 11:01:09;;;;;;;4.15;1.30;;;;;;;21.08;44.39;99079.63;5027724;28;20132;-81
2022/05/12 11:03:54;;;;;;;4.70;1.25;;;;;;;21.19;43.91;99072.00;5007865;28;20042;-81
2022/05/12 11:06:24;;;;;;;4.60;1.73;;;;;;;21.32;44.01;99077.34;5027267;28;20072;-81
2022/05/12 11:08:58;;;;;;;4.93;1.83;;;;;;;21.45;44.01;99079.16;5029800;28;20034;-81
2022/05/12 11:11:33;;;;;;;2.17;1.15;;;;;;;21.63;43.83;99071.88;5028495;28;20481;-81
2022/05/12 11:14:15;;;;;;;6.68;1.60;;;;;;;21.76;44.02;99073.69;4990108;28;20076;-81
2022/05/12 11:16:49;;;;;;;1.27;1.15;;;;;;;21.85;43.87;99079.97;5029568;28;20060;-81
2022/05/12 11:19:21;;;;;;;3.95;1.40;;;;;;;21.93;43.94;99068.31;5013315;28;20091;-81
2022/05/12 11:21:55;;;;;;;3.63;1.27;;;;;;;21.91;43.63;99077.94;5024999;28;20029;-81
2022/05/12 11:24:39;;;;;;;3.75;1.30;;;;;;;22.04;43.24;99074.28;5014042;28;20026;-81
2022/05/12 11:27:33;;;;;;;3.25;1.55;;;;;;;22.11;42.92;99061.78;5020569;28;20108;-81
2022/05/12 11:30:14;;;;;;;4.78;1.60;;;;;;;22.19;42.77;99055.56;5025666;28;20052;-81
2022/05/12 11:33:06;;;;;;;2.75;1.50;;;;;;;22.26;42.86;99055.06;5006468;28;20044;-81
2022/05/12 11:35:38;;;;;;;5.28;1.30;;;;;;;22.29;43.31;99059.88;4993512;28;20059;-81
2022/05/12 11:38:07;;;;;;;9.25;1.75;;;;;;;22.37;43.06;99057.16;4987573;28;20029;-81
2022/05/12 11:40:48;;;;;;;6.50;1.27;;;;;;;22.54;42.41;99058.28;4993625;28;20500;-82
2022/05/12 11:46:25;;;;;;;4.30;1.55;;;;;;;22.76;41.81;99056.19;5025046;28;20044;-81
2022/05/12 11:49:01;;;;;;;2.80;1.20;;;;;;;22.88;41.72;99055.53;5003706;28;20132;-81
2022/05/12 11:51:26;;;;;;;1.38;1.10;;;;;;;22.93;41.47;99045.25;5017746;28;20042;-81
2022/05/12 11:53:55;;;;;;;4.10;1.60;;;;;;;23.03;41.68;99061.28;5020131;28;20021;-81
2022/05/12 11:56:45;;;;;;;2.97;1.40;;;;;;;23.20;40.96;99052.22;5021980;28;20805;-81
2022/05/12 11:59:28;;;;;;;3.33;1.25;;;;;;;23.26;40.77;99042.78;5014067;28;20033;-81
2022/05/12 12:02:05;;;;;;;4.38;1.60;;;;;;;23.35;40.66;99043.56;5021388;28;20034;-82
2022/05/12 12:04:36;;;;;;;2.05;1.35;;;;;;;23.47;41.07;99038.22;5021873;28;20413;-81
2022/05/12 12:07:02;;;;;;;6.05;1.23;;;;;;;23.45;40.75;99035.03;5025607;28;20033;-82